Time;durP1;ratioP1;P1;durP2;ratioP2;P2;SDS_P1;SDS_P2;PMS_P1;PMS_P2;Temp;Humidity;BMP_temperature;BMP_pressure;BME280_temperature;BME280_humidity;BME280_pressure;Samples;Min_cycle;Max_cycle;Signal;HPM_P1;HPM_P2
2022/03/18 00:02:25;;;;;;;0.00;0.00;;;;;;;8.33;57.78;103071.84;7360082;19;20014;-62
2022/03/18 00:04:52;;;;;;;0.00;0.00;;;;;;;8.35;58.42;103093.59;7358529;19;20021;-62
2022/03/18 00:07:20;;;;;;;0.00;0.00;;;;;;;8.29;58.33;103109.06;7355088;19;22373;-61
2022/03/18 00:09:49;;;;;;;0.00;0.00;;;;;;;8.28;58.59;103102.97;7355046;19;20103;-62
2022/03/18 00:12:16;;;;;;;0.00;0.00;;;;;;;8.19;58.12;103083.66;7357325;19;20376;-62
2022/03/18 00:14:42;;;;;;;0.00;0.00;;;;;;;8.09;58.13;103068.63;7355670;19;20018;-61
2022/03/18 00:17:10;;;;;;;0.00;0.00;;;;;;;8.23;58.57;103106.31;7349882;19;20006;-62
2022/03/18 00:19:36;;;;;;;0.00;0.00;;;;;;;8.22;57.96;103117.56;7359617;19;20348;-62
2022/03/18 00:22:02;;;;;;;0.00;0.00;;;;;;;8.09;58.46;103094.66;7358799;19;20014;-62
2022/03/18 00:24:28;;;;;;;0.00;0.00;;;;;;;8.17;58.50;103098.34;7358149;19;20657;-62
2022/03/18 00:26:54;;;;;;;0.00;0.00;;;;;;;8.13;58.19;103094.78;7348541;19;20019;-62
2022/03/18 00:29:19;;;;;;;0.00;0.00;;;;;;;8.14;58.88;103093.06;7360815;19;20036;-62
2022/03/18 00:31:45;;;;;;;0.00;0.00;;;;;;;8.12;58.51;103095.63;7347879;19;20018;-63
2022/03/18 00:34:10;;;;;;;0.00;0.00;;;;;;;8.10;58.08;103097.28;7350544;19;20062;-62
2022/03/18 00:36:37;;;;;;;0.00;0.00;;;;;;;8.10;58.27;103112.91;7357901;19;20014;-62
2022/03/18 00:39:03;;;;;;;0.00;0.00;;;;;;;8.09;58.08;103110.28;7354408;19;20125;-62
2022/03/18 00:41:43;;;;;;;0.03;0.03;;;;;;;8.07;57.60;103108.53;4644107;19;10002292;-62
2022/03/18 00:44:09;;;;;;;0.00;0.00;;;;;;;8.01;58.13;103108.38;4512938;19;10001392;-62
2022/03/18 00:46:35;;;;;;;0.10;0.10;;;;;;;8.01;58.55;103113.56;7357301;19;20436;-62
2022/03/18 00:54:31;;;;;;;0.10;0.10;;;;;;;7.92;58.31;103134.13;7354970;19;20019;-62
2022/03/18 00:56:56;;;;;;;0.00;0.00;;;;;;;7.90;58.50;103135.78;7357130;19;20033;-62
2022/03/18 00:59:22;;;;;;;0.00;0.00;;;;;;;7.88;58.38;103137.47;7350198;19;20006;-62
2022/03/18 01:01:52;;;;;;;0.00;0.00;;;;;;;7.87;58.67;103135.72;7331864;19;20017;-62
2022/03/18 01:04:18;;;;;;;0.00;0.00;;;;;;;7.84;58.80;103134.75;7357730;19;20014;-62
2022/03/18 01:06:44;;;;;;;0.10;0.10;;;;;;;7.82;58.76;103131.25;7354358;19;20138;-62
2022/03/18 01:09:09;;;;;;;0.00;0.00;;;;;;;7.80;58.46;103138.97;7349596;19;20089;-62
2022/03/18 01:11:35;;;;;;;0.08;0.08;;;;;;;7.74;58.33;103133.59;7352914;19;20015;-62
2022/03/18 01:14:00;;;;;;;0.00;0.00;;;;;;;7.76;57.94;103142.34;7348926;19;20010;-62
2022/03/18 01:16:26;;;;;;;0.00;0.00;;;;;;;7.74;57.68;103144.88;7347491;19;20014;-62
2022/03/18 01:18:51;;;;;;;0.10;0.10;;;;;;;7.72;57.92;103140.50;7344703;19;20050;-62
2022/03/18 01:21:17;;;;;;;0.00;0.00;;;;;;;7.68;57.43;103147.31;7351741;19;20013;-61
2022/03/18 01:23:42;;;;;;;0.00;0.00;;;;;;;7.66;58.44;103151.63;7345937;19;20020;-62
2022/03/18 01:26:07;;;;;;;0.00;0.00;;;;;;;7.62;58.44;103148.88;7353095;19;20007;-62
2022/03/18 01:28:33;;;;;;;0.00;0.00;;;;;;;7.57;58.33;103151.34;7347762;19;20026;-62
2022/03/18 01:30:59;;;;;;;0.00;0.00;;;;;;;7.53;58.46;103149.47;7351092;19;20014;-61
2022/03/18 01:33:24;;;;;;;0.00;0.00;;;;;;;7.41;58.23;103144.81;7352348;19;21005;-62
2022/03/18 01:35:50;;;;;;;0.10;0.10;;;;;;;7.44;58.48;103150.09;7353919;19;20018;-62
2022/03/18 01:38:16;;;;;;;0.00;0.00;;;;;;;7.40;58.41;103150.84;7353514;19;20034;-62
2022/03/18 01:40:41;;;;;;;0.00;0.00;;;;;;;7.37;58.77;103150.75;7357048;19;20018;-61
2022/03/18 01:43:09;;;;;;;0.00;0.00;;;;;;;7.35;58.62;103149.84;7356455;19;20129;-62
2022/03/18 01:45:34;;;;;;;0.10;0.10;;;;;;;7.29;58.61;103162.63;7346386;19;20570;-61
2022/03/18 01:48:00;;;;;;;0.00;0.00;;;;;;;7.30;58.34;103172.22;7357125;19;20013;-62
2022/03/18 01:50:25;;;;;;;0.00;0.00;;;;;;;7.27;58.35;103177.31;7360967;19;20018;-62
2022/03/18 01:52:52;;;;;;;0.08;0.08;;;;;;;7.22;59.11;103179.75;7365290;19;20520;-62
2022/03/18 01:55:20;;;;;;;0.00;0.00;;;;;;;7.19;59.03;103170.97;7342242;19;20010;-62
2022/03/18 01:57:46;;;;;;;0.00;0.00;;;;;;;7.15;58.98;103163.94;7356038;19;20821;-61
2022/03/18 02:00:13;;;;;;;0.00;0.00;;;;;;;7.12;59.37;103166.44;7358111;19;20835;-61
2022/03/18 02:02:38;;;;;;;0.00;0.00;;;;;;;7.10;58.86;103186.31;7336323;19;20025;-62
2022/03/18 02:05:09;;;;;;;0.00;0.00;;;;;;;7.09;58.97;103193.19;7352491;19;20022;-62
2022/03/18 02:07:34;;;;;;;0.10;0.10;;;;;;;7.05;59.19;103193.06;7355045;19;20010;-62
2022/03/18 02:10:00;;;;;;;0.00;0.00;;;;;;;7.02;59.49;103197.31;7350612;19;20010;-61
2022/03/18 02:12:25;;;;;;;0.00;0.00;;;;;;;7.01;59.30;103194.69;7358234;19;20014;-62
2022/03/18 02:14:51;;;;;;;0.00;0.00;;;;;;;6.94;59.76;103190.97;7356459;19;20018;-62
2022/03/18 02:17:18;;;;;;;0.00;0.00;;;;;;;7.00;59.38;103203.31;7355780;19;20210;-61
2022/03/18 02:19:45;;;;;;;0.00;0.00;;;;;;;6.99;59.32;103211.91;7358125;19;20439;-62
2022/03/18 02:22:22;;;;;;;0.00;0.00;;;;;;;6.93;59.28;103206.53;7355733;19;20082;-62
2022/03/18 02:24:52;;;;;;;0.10;0.10;;;;;;;6.96;59.13;103217.03;7353343;19;20014;-62
2022/03/18 02:27:17;;;;;;;0.00;0.00;;;;;;;6.83;58.97;103194.97;7357127;19;20010;-61
2022/03/18 02:29:50;;;;;;;0.07;0.07;;;;;;;6.95;58.79;103215.28;4745317;19;10021237;-61
2022/03/18 02:32:18;;;;;;;0.00;0.00;;;;;;;6.84;59.06;103214.00;4006759;19;10001688;-62
2022/03/18 02:34:43;;;;;;;0.00;0.00;;;;;;;6.88;58.51;103219.38;7346422;19;20817;-62
2022/03/18 02:37:09;;;;;;;0.00;0.00;;;;;;;6.90;58.90;103238.50;7358762;19;20016;-62
2022/03/18 02:39:35;;;;;;;0.00;0.00;;;;;;;6.86;58.92;103223.63;7350886;19;20017;-62
2022/03/18 02:42:00;;;;;;;0.00;0.00;;;;;;;6.84;58.85;103225.28;7354434;19;20018;-61
2022/03/18 02:44:26;;;;;;;0.00;0.00;;;;;;;6.82;59.19;103221.75;7356049;19;20011;-62
2022/03/18 02:46:52;;;;;;;0.00;0.00;;;;;;;6.80;59.21;103223.44;7353063;19;20010;-61
2022/03/18 02:49:19;;;;;;;0.00;0.00;;;;;;;6.71;59.13;103210.16;7351854;19;20475;-62
2022/03/18 02:51:45;;;;;;;0.00;0.00;;;;;;;6.73;59.33;103217.13;7352540;19;20015;-62
2022/03/18 02:54:12;;;;;;;0.00;0.00;;;;;;;6.68;59.12;103225.63;7356884;19;20015;-61
2022/03/18 02:56:38;;;;;;;0.08;0.08;;;;;;;6.63;59.17;103227.16;7357633;19;20030;-61
2022/03/18 02:59:04;;;;;;;0.00;0.00;;;;;;;6.57;59.63;103224.38;7348799;19;20468;-62
2022/03/18 03:01:32;;;;;;;0.00;0.00;;;;;;;6.54;59.20;103217.38;7353737;19;20376;-62
2022/03/18 03:03:59;;;;;;;0.00;0.00;;;;;;;6.50;59.72;103208.59;7354805;19;20130;-61
2022/03/18 03:09:08;;;;;;;0.00;0.00;;;;;;;6.43;59.43;103219.56;7350849;19;20018;-62
2022/03/18 03:11:34;;;;;;;0.00;0.00;;;;;;;6.40;59.85;103222.09;7356945;19;20678;-61
2022/03/18 03:14:00;;;;;;;0.00;0.00;;;;;;;6.22;60.40;103198.06;7344036;19;20019;-62
2022/03/18 03:16:26;;;;;;;0.00;0.00;;;;;;;6.35;59.88;103221.03;7354870;19;20675;-62
2022/03/18 03:18:51;;;;;;;0.00;0.00;;;;;;;6.34;59.71;103221.88;7352135;19;20011;-62
2022/03/18 03:21:17;;;;;;;0.10;0.10;;;;;;;6.32;59.42;103218.31;7351135;19;20003;-62
2022/03/18 03:23:42;;;;;;;0.05;0.05;;;;;;;6.33;59.63;103227.88;7354311;19;20054;-62
2022/03/18 03:26:08;;;;;;;0.10;0.10;;;;;;;6.33;59.42;103238.25;7350388;19;20039;-62
2022/03/18 03:28:34;;;;;;;0.00;0.00;;;;;;;6.32;59.48;103231.28;7338584;19;20006;-62
2022/03/18 03:31:00;;;;;;;0.00;0.00;;;;;;;6.30;59.09;103227.78;7351864;19;20031;-61
2022/03/18 03:33:26;;;;;;;0.10;0.10;;;;;;;6.28;59.03;103234.59;7353689;19;20084;-62
2022/03/18 03:35:52;;;;;;;0.00;0.00;;;;;;;6.14;59.53;103223.75;7354447;19;20089;-62
2022/03/18 03:38:17;;;;;;;0.00;0.00;;;;;;;6.24;58.93;103246.63;7354027;19;20026;-62
2022/03/18 03:40:43;;;;;;;0.00;0.00;;;;;;;6.21;59.33;103243.00;7354628;19;20014;-61
2022/03/18 03:43:09;;;;;;;0.00;0.00;;;;;;;6.19;59.88;103244.69;7351089;19;21881;-61
2022/03/18 03:45:38;;;;;;;0.08;0.08;;;;;;;6.16;59.76;103236.78;7354942;19;20017;-62
2022/03/18 03:48:05;;;;;;;0.00;0.00;;;;;;;6.14;59.94;103246.22;7343657;19;20407;-61
2022/03/18 03:50:31;;;;;;;0.00;0.00;;;;;;;6.11;59.83;103246.97;7355559;19;20709;-61
2022/03/18 03:52:56;;;;;;;0.00;0.00;;;;;;;6.10;60.14;103249.53;7355153;19;20014;-62
2022/03/18 03:55:22;;;;;;;0.00;0.00;;;;;;;6.06;60.03;103251.13;7360072;19;20798;-62
2022/03/18 03:57:48;;;;;;;0.00;0.00;;;;;;;6.00;60.12;103252.63;7361771;19;20018;-61
2022/03/18 04:00:14;;;;;;;0.00;0.00;;;;;;;6.07;60.65;103267.56;7339340;19;20029;-62
2022/03/18 04:02:40;;;;;;;0.00;0.00;;;;;;;5.96;60.66;103247.28;7360695;19;20022;-62
2022/03/18 04:05:09;;;;;;;0.10;0.10;;;;;;;6.04;60.68;103262.28;7358596;19;20617;-61
2022/03/18 04:07:37;;;;;;;0.00;0.00;;;;;;;6.07;60.60;103264.97;7357830;19;20011;-62
2022/03/18 04:10:04;;;;;;;0.00;0.00;;;;;;;6.06;60.67;103258.03;7362841;19;20021;-62
2022/03/18 04:12:29;;;;;;;0.00;0.00;;;;;;;6.07;60.48;103257.19;7363447;19;20022;-62
2022/03/18 04:14:55;;;;;;;0.00;0.00;;;;;;;5.97;60.58;103249.06;7350038;19;20023;-62
2022/03/18 04:17:22;;;;;;;0.00;0.00;;;;;;;6.07;59.68;103264.97;7362033;19;20090;-62
2022/03/18 04:19:48;;;;;;;0.00;0.00;;;;;;;6.06;59.96;103273.59;7358937;19;20685;-62
2022/03/18 04:22:13;;;;;;;0.10;0.10;;;;;;;6.03;59.62;103286.44;7361260;19;20014;-62
2022/03/18 04:24:39;;;;;;;0.00;0.00;;;;;;;6.01;59.58;103293.28;7370749;19;20793;-62
2022/03/18 04:27:04;;;;;;;0.03;0.03;;;;;;;5.98;59.63;103292.34;7361155;19;20022;-62
2022/03/18 04:29:31;;;;;;;0.00;0.00;;;;;;;5.90;59.58;103293.72;7361190;19;20038;-62
2022/03/18 04:31:58;;;;;;;0.00;0.00;;;;;;;5.93;59.93;103293.88;7317357;19;20018;-62
2022/03/18 04:34:24;;;;;;;0.05;0.05;;;;;;;5.91;59.07;103295.50;1093312;19;10001910;-62
2022/03/18 04:36:49;;;;;;;0.00;0.00;;;;;;;5.87;60.14;103293.59;7359128;19;20014;-62
2022/03/18 04:39:14;;;;;;;0.00;0.00;;;;;;;5.84;59.59;103293.50;7348485;19;20030;-62
2022/03/18 04:41:40;;;;;;;0.00;0.00;;;;;;;5.80;59.70;103294.19;7362536;19;20018;-62
2022/03/18 04:44:05;;;;;;;0.00;0.00;;;;;;;5.77;60.06;103294.06;7359759;19;20011;-62
2022/03/18 04:46:31;;;;;;;0.10;0.10;;;;;;;5.74;59.72;103306.94;7357690;19;20007;-62
2022/03/18 04:48:59;;;;;;;0.00;0.00;;;;;;;5.71;60.00;103312.88;7360022;19;20760;-62
2022/03/18 04:51:25;;;;;;;0.00;0.00;;;;;;;5.68;60.00;103307.56;7360845;19;20573;-62
2022/03/18 04:53:51;;;;;;;0.00;0.00;;;;;;;5.65;59.54;103303.97;7351874;19;20375;-62
2022/03/18 04:59:01;;;;;;;0.05;0.05;;;;;;;5.60;59.60;103303.78;7354956;19;20085;-62
2022/03/18 05:01:27;;;;;;;0.08;0.08;;;;;;;5.57;59.65;103313.13;7355727;19;20023;-62
2022/03/18 05:03:52;;;;;;;0.10;0.10;;;;;;;5.54;59.64;103319.09;7363610;19;20105;-62
2022/03/18 05:06:18;;;;;;;0.10;0.10;;;;;;;5.52;59.80;103327.63;7368620;19;20007;-62
2022/03/18 05:08:44;;;;;;;0.00;0.00;;;;;;;5.49;60.01;103331.00;7368077;19;20014;-62
2022/03/18 05:11:10;;;;;;;0.10;0.10;;;;;;;5.46;60.27;103330.84;7366430;19;20639;-62
2022/03/18 05:13:35;;;;;;;0.00;0.00;;;;;;;5.43;60.37;103334.22;7359263;19;20115;-62
2022/03/18 05:16:01;;;;;;;0.00;0.00;;;;;;;5.41;60.22;103346.22;7358344;19;20003;-62
2022/03/18 05:18:26;;;;;;;0.00;0.00;;;;;;;5.39;60.15;103339.22;7349085;19;20029;-62
2022/03/18 05:20:52;;;;;;;0.00;0.00;;;;;;;5.38;60.51;103347.81;7354611;19;20038;-62
2022/03/18 05:23:17;;;;;;;0.00;0.00;;;;;;;5.29;60.68;103337.06;7358294;19;20015;-62
2022/03/18 05:25:43;;;;;;;0.00;0.00;;;;;;;5.33;60.86;103352.81;7360764;19;20657;-62
2022/03/18 05:28:09;;;;;;;0.00;0.00;;;;;;;5.31;60.87;103348.38;7358980;19;20030;-62
2022/03/18 05:30:35;;;;;;;0.10;0.10;;;;;;;5.30;60.46;103338.84;7362047;19;20824;-61
2022/03/18 05:33:00;;;;;;;0.08;0.08;;;;;;;5.26;60.73;103343.00;7356267;19;20036;-62
2022/03/18 05:35:26;;;;;;;0.00;0.00;;;;;;;5.25;60.29;103345.53;7362774;19;20463;-62
2022/03/18 05:37:51;;;;;;;0.00;0.00;;;;;;;5.24;60.31;103354.13;7358749;19;20010;-62
2022/03/18 05:40:18;;;;;;;0.00;0.00;;;;;;;5.20;60.32;103351.41;7353430;19;20030;-62
2022/03/18 05:42:45;;;;;;;0.00;0.00;;;;;;;5.19;60.63;103351.34;7360444;19;20014;-62
2022/03/18 05:45:11;;;;;;;0.10;0.10;;;;;;;5.17;60.26;103345.19;7352317;19;20022;-63
2022/03/18 05:47:37;;;;;;;0.00;0.00;;;;;;;5.16;60.49;103351.19;7361631;19;20007;-62
2022/03/18 05:50:05;;;;;;;0.10;0.10;;;;;;;5.14;60.72;103351.16;7355217;19;20051;-62
2022/03/18 05:52:31;;;;;;;0.10;0.10;;;;;;;5.12;60.65;103350.22;7356589;19;20864;-62
2022/03/18 05:54:57;;;;;;;0.00;0.00;;;;;;;5.11;60.55;103355.31;7360005;19;20014;-62
2022/03/18 05:57:27;;;;;;;0.00;0.00;;;;;;;5.04;60.28;103345.50;7364689;19;20014;-62
2022/03/18 05:59:54;;;;;;;0.00;0.00;;;;;;;5.07;60.42;103363.75;7363825;19;20015;-62
2022/03/18 06:02:20;;;;;;;0.00;0.00;;;;;;;4.88;60.47;103334.50;7358684;19;20014;-62
2022/03/18 06:04:46;;;;;;;0.00;0.00;;;;;;;5.00;60.42;103359.16;7356687;19;20039;-62
2022/03/18 06:07:12;;;;;;;0.00;0.00;;;;;;;5.03;60.33;103369.66;7366139;19;20017;-62
2022/03/18 06:12:21;;;;;;;0.00;0.00;;;;;;;4.86;60.37;103338.72;7360219;19;20021;-62
2022/03/18 06:14:47;;;;;;;0.10;0.10;;;;;;;4.95;60.14;103359.81;7324910;19;20566;-62
2022/03/18 06:17:12;;;;;;;0.00;0.00;;;;;;;4.83;60.32;103341.19;7350957;19;20017;-62
2022/03/18 06:19:38;;;;;;;0.00;0.00;;;;;;;4.90;60.72;103369.09;7357711;19;20039;-62
2022/03/18 06:22:04;;;;;;;0.00;0.00;;;;;;;4.75;60.76;103342.53;7355083;19;20968;-62
2022/03/18 06:24:30;;;;;;;0.10;0.10;;;;;;;4.71;60.90;103356.16;7358081;19;20002;-62
2022/03/18 06:27:07;;;;;;;0.03;0.03;;;;;;;4.82;60.43;103367.03;3373669;19;10021883;-62
2022/03/18 06:29:32;;;;;;;0.00;0.00;;;;;;;4.81;61.27;103371.28;5621785;19;10001349;-62
2022/03/18 06:31:59;;;;;;;0.00;0.00;;;;;;;4.80;61.09;103371.22;7357755;19;20025;-62
2022/03/18 06:34:25;;;;;;;0.00;0.00;;;;;;;4.79;61.27;103366.88;7354619;19;20019;-62
2022/03/18 06:36:53;;;;;;;0.10;0.10;;;;;;;4.77;61.66;103366.81;7359783;19;20017;-62
2022/03/18 06:39:19;;;;;;;0.00;0.00;;;;;;;4.75;61.94;103371.03;7355038;19;20093;-62
2022/03/18 06:41:46;;;;;;;0.00;0.00;;;;;;;4.64;61.98;103359.31;7358817;19;20517;-62
2022/03/18 06:44:11;;;;;;;0.10;0.10;;;;;;;4.75;62.09;103383.97;7359877;19;20014;-62
2022/03/18 06:46:37;;;;;;;0.00;0.00;;;;;;;4.61;62.27;103354.00;7358706;19;20015;-62
2022/03/18 06:49:04;;;;;;;0.00;0.00;;;;;;;4.76;62.24;103390.03;7364302;19;20482;-62
2022/03/18 06:51:29;;;;;;;0.10;0.10;;;;;;;4.76;62.33;103385.72;7359054;19;20007;-62
2022/03/18 06:53:55;;;;;;;0.10;0.10;;;;;;;4.78;62.41;103383.22;7352914;19;20038;-62
2022/03/18 06:56:21;;;;;;;0.00;0.00;;;;;;;4.79;62.02;103387.59;7358144;19;20015;-62
2022/03/18 06:58:46;;;;;;;0.10;0.10;;;;;;;4.79;62.23;103380.69;7356766;19;20018;-63
2022/03/18 07:01:12;;;;;;;0.08;0.08;;;;;;;4.71;62.13;103376.88;7352618;19;20033;-63
2022/03/18 07:03:38;;;;;;;0.00;0.00;;;;;;;4.81;61.94;103384.22;7349890;19;20119;-64
2022/03/18 07:06:04;;;;;;;0.00;0.00;;;;;;;4.81;62.43;103388.53;7352262;19;20010;-63
2022/03/18 07:08:29;;;;;;;0.00;0.00;;;;;;;4.82;62.28;103383.44;7355157;19;20518;-63
2022/03/18 07:10:55;;;;;;;0.00;0.00;;;;;;;4.84;62.21;103383.50;7359674;19;20796;-63
2022/03/18 07:13:20;;;;;;;0.00;0.00;;;;;;;4.84;62.30;103389.56;7354181;19;20014;-63
2022/03/18 07:15:46;;;;;;;0.00;0.00;;;;;;;4.86;62.08;103392.19;7351586;19;20046;-63
2022/03/18 07:18:12;;;;;;;0.00;0.00;;;;;;;4.87;62.50;103389.69;7355313;19;20089;-63
2022/03/18 07:20:38;;;;;;;0.10;0.10;;;;;;;4.89;62.11;103388.06;7358460;19;20025;-63
2022/03/18 07:23:08;;;;;;;0.08;0.08;;;;;;;4.90;62.51;103396.69;7358454;19;20027;-63
2022/03/18 07:25:41;;;;;;;0.10;0.10;;;;;;;4.91;62.03;103391.56;7358014;19;20011;-63
2022/03/18 07:28:09;;;;;;;0.00;0.00;;;;;;;4.89;62.26;103388.06;7359634;19;20006;-63
2022/03/18 07:30:39;;;;;;;;;;;;;;;4.99;61.13;103389.34;7372139;19;20101;-63
2022/03/18 07:33:04;;;;;;;0.10;0.10;;;;;;;4.97;61.78;103382.31;7372887;19;20251;-63
2022/03/18 07:35:31;;;;;;;0.00;0.00;;;;;;;5.01;62.48;103391.97;7371539;19;20014;-63
2022/03/18 07:37:57;;;;;;;0.00;0.00;;;;;;;4.99;62.55;103394.50;7362554;19;20869;-64
2022/03/18 07:40:23;;;;;;;0.10;0.10;;;;;;;5.07;62.30;103392.25;7362307;19;20018;-63
2022/03/18 07:42:53;;;;;;;0.10;0.10;;;;;;;5.10;62.63;103392.38;7356214;19;20355;-63
2022/03/18 07:45:26;;;;;;;0.00;0.00;;;;;;;5.12;62.51;103395.91;7358256;19;20006;-63
2022/03/18 07:47:52;;;;;;;0.10;0.10;;;;;;;5.15;62.74;103396.94;7355251;19;20010;-63
2022/03/18 07:50:22;;;;;;;0.00;0.00;;;;;;;5.09;62.90;103375.97;7360754;19;20014;-63
2022/03/18 07:52:52;;;;;;;0.10;0.10;;;;;;;5.23;62.54;103386.91;7358374;19;20018;-63
2022/03/18 07:55:19;;;;;;;0.00;0.00;;;;;;;5.31;62.98;103390.69;7357511;19;20010;-63
2022/03/18 07:57:45;;;;;;;0.00;0.00;;;;;;;5.35;63.10;103383.94;7361202;19;20006;-63
2022/03/18 08:00:13;;;;;;;0.00;0.00;;;;;;;5.39;62.93;103381.56;7352663;19;20427;-63
2022/03/18 08:02:39;;;;;;;0.10;0.10;;;;;;;5.50;63.72;103381.13;7359219;19;20026;-63
2022/03/18 08:05:06;;;;;;;0.03;0.03;;;;;;;5.61;63.61;103387.63;7355731;19;20029;-63
2022/03/18 08:07:33;;;;;;;0.00;0.00;;;;;;;5.75;63.98;103396.84;7359085;19;20766;-63
2022/03/18 08:09:58;;;;;;;0.10;0.10;;;;;;;5.90;63.99;103389.69;7360198;19;20013;-63
2022/03/18 08:12:24;;;;;;;0.10;0.10;;;;;;;6.08;64.53;103389.53;7356492;19;20006;-64
2022/03/18 08:14:50;;;;;;;0.10;0.10;;;;;;;6.29;64.20;103396.41;7358795;19;20010;-63
2022/03/18 08:17:15;;;;;;;0.00;0.00;;;;;;;6.48;64.33;103398.84;7359332;19;20019;-64
2022/03/18 08:19:41;;;;;;;0.08;0.08;;;;;;;6.69;64.23;103403.94;7370848;19;20073;-64
2022/03/18 08:22:07;;;;;;;0.10;0.10;;;;;;;6.93;64.26;103406.53;7249622;19;20056;-63
2022/03/18 08:24:32;;;;;;;0.00;0.00;;;;;;;7.16;63.92;103405.66;1179302;19;10001962;-63
2022/03/18 08:26:58;;;;;;;0.00;0.00;;;;;;;7.43;64.10;103397.91;7371843;19;20053;-64
2022/03/18 08:29:23;;;;;;;0.08;0.08;;;;;;;7.70;63.70;103408.31;7367743;19;20034;-63
2022/03/18 08:31:49;;;;;;;0.10;0.10;;;;;;;8.01;62.78;103409.31;7361258;19;20006;-63
2022/03/18 08:34:15;;;;;;;0.03;0.03;;;;;;;8.30;62.88;103418.00;7362382;19;20021;-63
2022/03/18 08:36:41;;;;;;;0.00;0.00;;;;;;;8.59;62.53;103416.31;7348875;19;20009;-63
2022/03/18 08:39:06;;;;;;;0.00;0.00;;;;;;;8.89;61.94;103423.25;7359725;19;20027;-64
2022/03/18 08:41:32;;;;;;;0.03;0.03;;;;;;;9.18;61.61;103419.72;7357404;19;20002;-63
2022/03/18 08:43:57;;;;;;;0.00;0.00;;;;;;;9.45;61.24;103409.09;7337498;19;20014;-63
2022/03/18 08:46:23;;;;;;;0.00;0.00;;;;;;;9.75;61.07;103421.13;7361103;19;20013;-63
2022/03/18 08:48:48;;;;;;;0.00;0.00;;;;;;;10.03;61.00;103426.16;7328009;19;20010;-64
2022/03/18 08:51:15;;;;;;;0.00;0.00;;;;;;;10.33;60.46;103417.28;7361836;19;20415;-63
2022/03/18 08:53:41;;;;;;;0.00;0.00;;;;;;;10.55;60.31;103411.69;7344924;19;20015;-63
2022/03/18 08:56:07;;;;;;;0.00;0.00;;;;;;;10.81;59.58;103417.44;7362248;19;20025;-63
2022/03/18 08:58:32;;;;;;;0.00;0.00;;;;;;;11.07;59.66;103417.94;7360070;19;20010;-64
2022/03/18 09:00:58;;;;;;;0.00;0.00;;;;;;;11.33;59.05;103409.69;7359587;19;20021;-64
2022/03/18 09:03:23;;;;;;;0.00;0.00;;;;;;;11.53;58.73;103408.28;7350238;19;20018;-63
2022/03/18 09:05:49;;;;;;;0.00;0.00;;;;;;;11.76;59.02;103415.59;7358093;19;20013;-64
2022/03/18 09:08:14;;;;;;;0.00;0.00;;;;;;;11.97;58.50;103416.00;7364236;19;20022;-63
2022/03/18 09:10:41;;;;;;;0.03;0.03;;;;;;;12.17;58.29;103414.56;7353690;19;20056;-64
2022/03/18 09:13:07;;;;;;;0.00;0.00;;;;;;;12.23;58.59;103397.16;7354239;19;20027;-64
2022/03/18 09:15:32;;;;;;;0.00;0.00;;;;;;;12.56;58.10;103413.28;7349254;19;20060;-63
2022/03/18 09:17:58;;;;;;;0.00;0.00;;;;;;;12.81;58.42;103403.09;7354285;19;20023;-64
2022/03/18 09:20:23;;;;;;;0.00;0.00;;;;;;;13.01;57.99;103406.81;7353833;19;20026;-63
2022/03/18 09:22:49;;;;;;;0.00;0.00;;;;;;;13.26;57.90;103401.84;7357572;19;20294;-64
2022/03/18 09:25:14;;;;;;;0.00;0.00;;;;;;;13.47;57.76;103408.16;7358519;19;20018;-63
2022/03/18 09:27:41;;;;;;;0.00;0.00;;;;;;;13.69;57.94;103404.00;7354401;19;20120;-63
2022/03/18 09:30:08;;;;;;;0.00;0.00;;;;;;;13.91;57.33;103410.25;7360232;19;20471;-63
2022/03/18 09:32:35;;;;;;;0.00;0.00;;;;;;;14.10;57.64;103408.66;7354798;19;20030;-63
2022/03/18 09:35:01;;;;;;;0.00;0.00;;;;;;;14.34;56.91;103410.50;7356792;19;20011;-64
2022/03/18 09:37:26;;;;;;;0.10;0.10;;;;;;;14.47;56.92;103406.19;7357247;19;20050;-63
2022/03/18 09:39:52;;;;;;;0.10;0.10;;;;;;;14.60;56.49;103407.13;7354009;19;20018;-63
2022/03/18 09:42:17;;;;;;;0.00;0.00;;;;;;;14.75;56.70;103413.34;7353646;19;20011;-64
2022/03/18 09:44:43;;;;;;;0.00;0.00;;;;;;;14.94;55.75;103413.41;7352739;19;20026;-63
2022/03/18 09:47:09;;;;;;;0.00;0.00;;;;;;;15.05;55.25;103409.03;7348666;19;20010;-64
2022/03/18 09:49:36;;;;;;;0.10;0.10;;;;;;;15.20;55.37;103403.78;7355516;19;20022;-64
2022/03/18 09:52:04;;;;;;;0.00;0.00;;;;;;;15.32;54.93;103406.44;7347720;19;20025;-63
2022/03/18 09:54:30;;;;;;;;;;;;;;;15.57;55.81;103402.06;7356005;19;20010;-63
2022/03/18 09:56:56;;;;;;;0.00;0.00;;;;;;;15.63;54.49;103421.38;7354586;19;19931;-64
2022/03/18 09:59:24;;;;;;;0.10;0.10;;;;;;;15.70;54.23;103399.44;7364830;19;20050;-63
2022/03/18 10:01:49;;;;;;;0.00;0.00;;;;;;;15.85;53.63;103407.31;7367328;19;20054;-63
2022/03/18 10:04:15;;;;;;;0.10;0.10;;;;;;;15.89;53.45;103402.94;7369301;19;20136;-64
2022/03/18 10:06:42;;;;;;;0.00;0.00;;;;;;;16.05;53.43;103417.84;7357923;19;20010;-63
2022/03/18 10:09:11;;;;;;;0.10;0.10;;;;;;;16.23;52.81;103417.81;7367372;19;20009;-63
2022/03/18 10:11:37;;;;;;;0.08;0.08;;;;;;;16.40;52.84;103411.59;7350443;19;22687;-64
2022/03/18 10:14:08;;;;;;;0.00;0.00;;;;;;;16.55;52.20;103403.59;7343113;19;20034;-64
2022/03/18 10:16:48;;;;;;;0.00;0.00;;;;;;;16.71;52.02;103413.22;7356804;19;20467;-63
2022/03/18 10:19:22;;;;;;;0.10;0.10;;;;;;;16.71;51.74;103409.69;7347869;19;20011;-63
2022/03/18 10:21:51;;;;;;;0.00;0.00;;;;;;;16.80;51.91;103418.47;7351350;19;20007;-63
2022/03/18 10:24:23;;;;;;;0.10;0.10;;;;;;;16.85;51.84;103406.13;5759374;19;10001921;-64
2022/03/18 10:26:52;;;;;;;0.00;0.00;;;;;;;16.97;50.97;103421.00;3245131;19;10001778;-64
2022/03/18 10:29:17;;;;;;;0.10;0.10;;;;;;;17.04;51.01;103427.13;7349961;19;20021;-63
2022/03/18 10:31:59;;;;;;;0.10;0.10;;;;;;;17.20;51.77;103412.94;7358076;19;20014;-63
2022/03/18 10:37:21;;;;;;;0.00;0.00;;;;;;;17.34;50.76;103424.28;7254112;19;2004412;-64
2022/03/18 10:39:48;;;;;;;;;;;;;;;17.64;51.29;103422.28;7345293;19;20498;-63
2022/03/18 10:42:20;;;;;;;;;;;;;;;17.81;51.35;103427.44;7354582;19;20312;-63
2022/03/18 10:44:53;;;;;;;0.10;0.10;;;;;;;17.79;49.66;103424.81;7352067;19;19927;-63
2022/03/18 10:47:31;;;;;;;0.00;0.00;;;;;;;17.91;50.35;103407.97;7353282;19;20038;-63
2022/03/18 10:50:31;;;;;;;0.00;0.00;;;;;;;18.04;50.43;103400.75;7359901;19;20029;-63
2022/03/18 10:52:57;;;;;;;0.00;0.00;;;;;;;18.26;48.96;103420.78;7253853;19;2003999;-63
2022/03/18 10:55:25;;;;;;;0.00;0.00;;;;;;;18.44;48.96;103427.63;7359123;19;20010;-63
2022/03/18 10:57:53;;;;;;;0.08;0.08;;;;;;;18.68;48.83;103423.84;7353294;19;20006;-63
2022/03/18 11:00:20;;;;;;;0.10;0.10;;;;;;;18.82;48.20;103406.00;7345744;19;20765;-63
2022/03/18 11:02:51;;;;;;;;;;;;;;;19.34;49.33;103417.56;7355565;19;20555;-63
2022/03/18 11:05:19;;;;;;;0.10;0.10;;;;;;;19.45;46.74;103421.78;7337233;19;19918;-63
2022/03/18 11:07:46;;;;;;;0.05;0.05;;;;;;;19.54;45.81;103409.28;7352168;19;20011;-64
2022/03/18 11:13:02;;;;;;;0.00;0.00;;;;;;;19.93;45.27;103416.56;7357299;19;20046;-64
2022/03/18 11:15:29;;;;;;;0.00;0.00;;;;;;;20.03;45.65;103421.72;7354146;19;20031;-63
2022/03/18 11:17:56;;;;;;;0.00;0.00;;;;;;;20.16;44.93;103412.59;7350145;19;20030;-64
2022/03/18 11:20:26;;;;;;;0.00;0.00;;;;;;;20.25;44.88;103406.22;7360927;19;20014;-63
2022/03/18 11:22:52;;;;;;;0.10;0.10;;;;;;;20.47;44.29;103413.72;7349487;19;20033;-64
2022/03/18 11:25:19;;;;;;;0.13;0.13;;;;;;;20.73;44.44;103409.63;7357110;19;20011;-63
2022/03/18 11:27:46;;;;;;;0.10;0.10;;;;;;;20.94;43.30;103413.63;7357626;19;20606;-63
2022/03/18 11:30:25;;;;;;;0.00;0.00;;;;;;;21.23;44.23;103412.91;7350748;19;20034;-63
2022/03/18 11:33:21;;;;;;;0.10;0.10;;;;;;;21.46;45.64;103410.59;7357564;19;20022;-63
2022/03/18 11:35:49;;;;;;;0.00;0.00;;;;;;;21.59;43.05;103413.78;7257989;19;2004512;-63
2022/03/18 11:38:17;;;;;;;0.00;0.00;;;;;;;21.80;42.42;103412.38;7353212;19;20007;-63
2022/03/18 11:40:53;;;;;;;0.00;0.00;;;;;;;22.25;43.15;103420.00;7358203;19;20371;-63
2022/03/18 11:43:37;;;;;;;0.10;0.10;;;;;;;22.50;43.01;103409.53;7354418;19;20024;-63
2022/03/18 11:46:19;;;;;;;0.00;0.00;;;;;;;22.60;42.49;103410.13;7357516;19;20766;-63
2022/03/18 11:49:05;;;;;;;0.00;0.00;;;;;;;22.70;40.90;103419.56;7352540;19;20010;-63
2022/03/18 11:51:33;;;;;;;0.10;0.10;;;;;;;22.80;40.61;103421.03;7353937;19;20018;-63